Time;durP1;ratioP1;P1;durP2;ratioP2;P2;SDS_P1;SDS_P2;PMS_P1;PMS_P2;Temp;Humidity;BMP_temperature;BMP_pressure;BME280_temperature;BME280_humidity;BME280_pressure;Samples;Min_cycle;Max_cycle;Signal;HPM_P1;HPM_P2
2022/04/18 00:00:55;;;;;;;6.45;4.60;;;;;;;8.78;44.44;101817.28;5015966;28;20025;-94
2022/04/18 00:03:20;;;;;;;5.25;4.75;;;;;;;8.73;44.42;101819.16;5001007;28;20120;-94
2022/04/18 00:05:45;;;;;;;6.85;4.60;;;;;;;8.65;44.43;101810.53;5006121;28;20034;-95
2022/04/18 00:08:11;;;;;;;4.88;4.25;;;;;;;8.64;44.46;101809.69;5005675;28;20033;-95
2022/04/18 00:10:36;;;;;;;5.78;4.30;;;;;;;8.58;44.96;101809.00;4991456;28;20415;-94
2022/04/18 00:13:01;;;;;;;4.93;4.22;;;;;;;8.55;44.56;101806.41;5009166;28;20026;-95
2022/04/18 00:15:27;;;;;;;5.07;4.20;;;;;;;8.54;45.13;101810.84;5005091;28;20475;-94
2022/04/18 00:17:52;;;;;;;4.68;4.28;;;;;;;8.51;44.70;101813.59;5010437;28;20033;-95
2022/04/18 00:20:17;;;;;;;5.50;4.63;;;;;;;8.41;44.94;101805.00;5004234;28;20018;-95
2022/04/18 00:22:44;;;;;;;6.22;4.20;;;;;;;8.43;45.20;101810.25;5018846;28;20033;-94
2022/04/18 00:25:09;;;;;;;7.18;4.35;;;;;;;8.35;45.29;101801.59;5001165;28;20037;-94
2022/04/18 00:27:35;;;;;;;4.45;4.05;;;;;;;8.34;45.22;101807.81;5019706;28;20026;-94
2022/04/18 00:30:00;;;;;;;5.07;3.97;;;;;;;8.27;45.00;101796.50;5015723;28;20033;-94
2022/04/18 00:32:26;;;;;;;5.97;3.70;;;;;;;8.25;45.11;101800.97;5007077;28;20095;-94
2022/04/18 00:34:51;;;;;;;5.35;4.07;;;;;;;8.23;45.26;101792.19;5001785;28;20030;-93
2022/04/18 00:37:16;;;;;;;4.50;4.03;;;;;;;8.24;45.26;101802.75;5010287;28;20037;-94
2022/04/18 00:39:41;;;;;;;4.20;3.80;;;;;;;8.22;44.82;101803.69;4993162;28;20049;-94
2022/04/18 00:42:07;;;;;;;5.45;4.03;;;;;;;8.23;44.92;101800.13;5011381;28;20040;-95
2022/04/18 00:44:32;;;;;;;4.10;3.60;;;;;;;8.18;45.31;101802.03;5007245;28;20522;-95
2022/04/18 00:46:57;;;;;;;5.57;3.97;;;;;;;8.18;45.05;101791.44;4997247;28;20025;-94
2022/04/18 00:49:22;;;;;;;4.10;3.53;;;;;;;8.13;45.14;101790.69;5009633;28;20031;-93
2022/04/18 00:51:48;;;;;;;4.65;3.75;;;;;;;8.11;44.76;101792.50;5009197;28;20026;-94
2022/04/18 00:54:14;;;;;;;5.55;3.78;;;;;;;8.11;45.24;101790.75;5006847;28;20038;-93
2022/04/18 00:56:40;;;;;;;5.32;3.72;;;;;;;8.08;45.48;101784.63;5009579;28;20383;-93
2022/04/18 00:59:05;;;;;;;3.67;3.28;;;;;;;8.01;45.20;101783.91;5008670;28;20026;-94
2022/04/18 01:01:31;;;;;;;4.35;3.42;;;;;;;8.01;45.24;101793.66;5005973;28;20038;-94
2022/04/18 01:03:56;;;;;;;4.32;3.63;;;;;;;7.97;45.25;101793.72;5004337;28;20030;-94
2022/04/18 01:06:21;;;;;;;4.55;3.67;;;;;;;7.92;45.60;101794.75;5006331;28;20107;-94
2022/04/18 01:08:48;;;;;;;4.20;3.40;;;;;;;7.81;46.29;101784.41;4991003;28;20141;-94
2022/04/18 01:11:14;;;;;;;4.50;3.90;;;;;;;7.81;45.42;101786.19;5007147;28;20026;-94
2022/04/18 01:13:44;;;;;;;4.57;3.47;;;;;;;7.81;45.83;101791.47;5005995;28;20048;-93
2022/04/18 01:16:10;;;;;;;7.03;4.00;;;;;;;7.78;45.59;101784.50;5009995;28;20026;-94
2022/04/18 01:18:36;;;;;;;3.75;3.05;;;;;;;7.74;45.96;101789.00;4986662;28;20037;-94
2022/04/18 01:21:03;;;;;;;6.07;3.60;;;;;;;7.68;46.06;101785.59;5008467;28;20034;-94
2022/04/18 01:23:29;;;;;;;4.32;3.50;;;;;;;7.66;46.03;101777.69;4990299;28;20240;-94
2022/04/18 01:31:23;;;;;;;4.18;3.55;;;;;;;7.59;46.24;101791.13;4996250;28;20092;-94
2022/04/18 01:33:48;;;;;;;4.70;3.33;;;;;;;7.52;46.74;101784.22;4999062;28;20117;-93
2022/04/18 01:36:14;;;;;;;4.90;3.35;;;;;;;7.49;47.04;101780.75;5008914;28;20124;-94
2022/04/18 01:38:39;;;;;;;7.13;3.35;;;;;;;7.47;46.86;101793.13;5012185;28;20147;-94
2022/04/18 01:41:04;;;;;;;4.60;3.63;;;;;;;7.44;47.68;101793.22;5011842;28;20019;-92
2022/04/18 01:43:29;;;;;;;3.88;3.47;;;;;;;7.36;47.17;101791.66;5001857;28;20040;-94
2022/04/18 01:45:55;;;;;;;5.05;3.42;;;;;;;7.33;48.15;101791.72;5002952;28;20026;-94
2022/04/18 01:48:20;;;;;;;5.05;3.25;;;;;;;7.31;47.97;101790.88;5007990;28;20133;-94
2022/04/18 01:50:45;;;;;;;5.85;3.42;;;;;;;7.27;48.28;101791.84;5016909;28;20037;-94
2022/04/18 01:53:12;;;;;;;5.10;3.17;;;;;;;7.22;47.92;101795.47;5008674;28;20042;-94
2022/04/18 01:55:37;;;;;;;4.80;3.50;;;;;;;7.20;48.08;101783.19;5018508;28;20041;-94
2022/04/18 01:58:05;;;;;;;4.80;3.60;;;;;;;7.15;48.50;101785.94;4999976;28;20034;-94
2022/04/18 02:00:30;;;;;;;3.85;3.30;;;;;;;7.11;48.63;101780.75;5009016;28;20163;-94
2022/04/18 02:02:56;;;;;;;4.72;3.22;;;;;;;7.05;48.45;101778.22;5010072;28;20041;-93
2022/04/18 02:05:21;;;;;;;5.38;3.58;;;;;;;7.03;48.94;101774.75;5010661;28;20155;-94
2022/04/18 02:07:47;;;;;;;5.20;3.78;;;;;;;6.96;48.59;101766.91;5011256;28;20045;-94
2022/04/18 02:10:13;;;;;;;3.78;3.30;;;;;;;6.97;48.75;101775.72;5009296;28;20585;-93
2022/04/18 02:12:38;;;;;;;5.72;3.65;;;;;;;6.98;48.78;101777.44;5016260;28;20034;-93
2022/04/18 02:15:04;;;;;;;4.15;3.63;;;;;;;6.93;48.89;101763.44;5018682;28;20025;-93
2022/04/18 02:17:29;;;;;;;5.57;3.60;;;;;;;6.88;48.91;101762.69;5013359;28;20123;-94
2022/04/18 02:19:55;;;;;;;7.45;3.83;;;;;;;6.87;49.46;101766.25;5013689;28;20077;-94
2022/04/18 02:22:23;;;;;;;5.65;3.90;;;;;;;6.82;49.66;101765.47;5007600;28;20026;-93
2022/04/18 02:24:49;;;;;;;4.82;3.22;;;;;;;6.78;50.27;101759.38;5006638;28;20029;-93
2022/04/18 02:27:15;;;;;;;4.40;3.60;;;;;;;6.72;50.09;101756.81;5011339;28;20061;-94
2022/04/18 02:29:40;;;;;;;6.53;3.53;;;;;;;6.69;50.46;101759.56;5001172;28;20061;-94
2022/04/18 02:34:50;;;;;;;6.00;3.60;;;;;;;6.60;50.65;101751.78;5009137;28;20137;-93
2022/04/18 02:37:15;;;;;;;4.35;3.70;;;;;;;6.58;50.36;101753.59;5005666;28;20030;-94
2022/04/18 02:39:41;;;;;;;5.00;3.40;;;;;;;6.52;51.03;101751.06;5010950;28;20064;-94
2022/04/18 02:42:06;;;;;;;5.40;3.90;;;;;;;6.42;51.54;101745.94;4996978;28;20545;-94
2022/04/18 02:44:31;;;;;;;7.07;3.83;;;;;;;6.43;51.40;101749.47;5005250;28;20036;-94
2022/04/18 02:46:56;;;;;;;7.18;4.13;;;;;;;6.42;52.22;101747.72;5020432;28;20531;-94
2022/04/18 02:49:22;;;;;;;5.82;4.05;;;;;;;6.37;51.73;101750.47;5007950;28;20068;-94
2022/04/18 02:51:47;;;;;;;6.88;4.00;;;;;;;6.33;52.33;101750.56;5003499;28;20099;-94
2022/04/18 02:54:12;;;;;;;5.82;3.90;;;;;;;6.27;52.43;101738.34;5004787;28;20028;-95
2022/04/18 02:56:38;;;;;;;5.78;4.10;;;;;;;6.18;52.91;101739.34;5002995;28;20026;-95
2022/04/18 02:59:03;;;;;;;4.28;3.70;;;;;;;6.14;53.23;101736.78;5001583;28;20030;-96
2022/04/18 03:01:28;;;;;;;6.00;4.13;;;;;;;6.12;52.89;101735.97;5002174;28;20038;-94
2022/04/18 03:03:53;;;;;;;5.38;3.53;;;;;;;6.09;53.41;101733.38;4998749;28;20702;-95
2022/04/18 03:06:19;;;;;;;5.72;3.42;;;;;;;6.03;53.13;101729.06;5000310;28;20034;-95
2022/04/18 03:08:44;;;;;;;6.20;3.83;;;;;;;6.03;53.42;101723.78;4999571;28;20093;-94
2022/04/18 03:11:10;;;;;;;3.70;3.40;;;;;;;5.95;54.01;101718.63;4999551;28;20026;-95
2022/04/18 03:13:37;;;;;;;5.32;3.80;;;;;;;5.96;53.90;101727.44;4998411;28;20037;-94
2022/04/18 03:16:04;;;;;;;5.55;4.43;;;;;;;5.92;54.14;101723.97;5000144;28;20041;-94
2022/04/18 03:18:30;;;;;;;5.43;3.90;;;;;;;5.88;54.44;101722.25;5002618;28;20080;-94
2022/04/18 03:20:55;;;;;;;5.82;4.03;;;;;;;5.85;54.29;101721.41;4984189;28;20049;-94
2022/04/18 03:23:21;;;;;;;5.85;4.00;;;;;;;5.71;54.87;101716.38;5000500;28;20180;-95
2022/04/18 03:25:46;;;;;;;5.03;3.75;;;;;;;5.69;54.80;101710.25;5000198;28;20164;-94
2022/04/18 03:28:11;;;;;;;6.55;4.68;;;;;;;5.63;54.94;101708.56;5000779;28;20100;-95
2022/04/18 03:30:37;;;;;;;6.43;4.28;;;;;;;5.63;54.37;101716.50;4997848;28;20030;-95
2022/04/18 03:33:03;;;;;;;5.07;4.25;;;;;;;5.63;55.28;101715.63;5002495;28;20100;-95
2022/04/18 03:35:28;;;;;;;5.75;4.35;;;;;;;5.65;54.80;101725.28;5010174;28;20017;-94
2022/04/18 03:40:37;;;;;;;5.90;4.50;;;;;;;5.51;55.17;101706.13;5020725;28;20088;-94
2022/04/18 03:43:03;;;;;;;6.13;4.28;;;;;;;5.56;55.34;101730.72;5013163;28;20112;-94
2022/04/18 03:45:28;;;;;;;5.32;4.10;;;;;;;5.49;55.39;101729.06;5006873;28;20029;-94
2022/04/18 03:47:54;;;;;;;4.45;3.95;;;;;;;5.47;55.32;101736.13;5022866;28;20022;-94
2022/04/18 03:50:19;;;;;;;4.90;4.32;;;;;;;5.39;56.07;101731.00;5016538;28;20033;-93
2022/04/18 03:52:44;;;;;;;4.38;3.97;;;;;;;5.38;56.12;101728.34;5004834;28;20077;-93
2022/04/18 03:55:11;;;;;;;7.22;4.55;;;;;;;5.30;56.62;101719.66;5004607;28;20117;-93
2022/04/18 03:57:37;;;;;;;5.10;4.50;;;;;;;5.28;56.39;101719.72;5012226;28;20033;-93
2022/04/18 04:00:04;;;;;;;5.05;4.22;;;;;;;5.26;56.79;101724.13;5008676;28;20033;-93
2022/04/18 04:02:30;;;;;;;6.95;4.80;;;;;;;5.25;56.64;101725.88;5016667;28;20027;-93
2022/04/18 04:04:55;;;;;;;6.18;4.25;;;;;;;5.16;56.12;101725.16;5006816;28;20026;-94
2022/04/18 04:07:20;;;;;;;6.65;4.30;;;;;;;5.17;57.01;101722.50;5011136;28;20018;-93
2022/04/18 04:09:46;;;;;;;5.63;4.57;;;;;;;5.16;56.61;101722.53;5004047;28;20482;-94
2022/04/18 04:12:11;;;;;;;7.45;4.43;;;;;;;5.14;56.88;101719.03;5008534;28;20129;-93
2022/04/18 04:14:37;;;;;;;5.60;4.65;;;;;;;5.10;57.00;101715.56;5018024;28;20321;-94
2022/04/18 04:17:02;;;;;;;7.05;4.82;;;;;;;5.05;57.32;101713.88;5011454;28;20072;-95
2022/04/18 04:19:28;;;;;;;5.57;4.53;;;;;;;5.04;57.44;101714.78;5009924;28;20037;-94
2022/04/18 04:21:53;;;;;;;6.20;4.93;;;;;;;5.00;57.48;101714.81;5001494;28;20383;-94
2022/04/18 04:24:20;;;;;;;6.47;4.80;;;;;;;4.98;57.80;101718.38;5008727;28;20030;-95
2022/04/18 04:26:45;;;;;;;6.68;5.13;;;;;;;4.95;58.87;101726.34;5004641;28;20088;-94
2022/04/18 04:29:10;;;;;;;6.45;4.80;;;;;;;4.86;58.78;101721.19;5010618;28;20021;-94
2022/04/18 04:31:36;;;;;;;7.07;5.03;;;;;;;4.84;59.74;101726.47;5004419;28;20084;-94
2022/04/18 04:34:01;;;;;;;6.07;5.07;;;;;;;4.80;60.40;101721.25;4995286;28;20026;-95
2022/04/18 04:36:26;;;;;;;5.25;4.75;;;;;;;4.79;60.13;101723.03;5009188;28;20057;-94
2022/04/18 04:38:51;;;;;;;7.30;5.13;;;;;;;4.71;60.11;101720.47;4988028;28;20477;-95
2022/04/18 04:41:18;;;;;;;7.13;4.80;;;;;;;4.71;60.27;101711.69;5009406;28;20392;-95
2022/04/18 04:43:43;;;;;;;6.32;5.05;;;;;;;4.72;60.26;101721.34;5008028;28;20391;-94
2022/04/18 04:46:08;;;;;;;5.95;5.10;;;;;;;4.71;59.71;101723.09;5005792;28;20050;-94
2022/04/18 04:48:33;;;;;;;6.78;4.97;;;;;;;4.65;59.69;101714.44;5008422;28;20489;-95
2022/04/18 04:50:59;;;;;;;6.47;4.88;;;;;;;4.67;59.66;101726.69;5010488;28;20042;-95
2022/04/18 04:53:24;;;;;;;8.20;5.43;;;;;;;4.70;59.28;101726.66;5009001;28;20049;-95
2022/04/18 04:55:49;;;;;;;7.18;4.93;;;;;;;4.69;59.11;101727.53;5013954;28;20386;-93
2022/04/18 04:58:15;;;;;;;6.43;5.25;;;;;;;4.62;59.73;101717.09;5007096;28;20030;-94
2022/04/18 05:00:42;;;;;;;6.93;5.25;;;;;;;4.67;60.93;101731.09;4997923;28;20484;-94
2022/04/18 05:03:08;;;;;;;10.65;5.07;;;;;;;4.60;61.15;101724.13;5004639;28;20045;-94
2022/04/18 05:05:33;;;;;;;7.50;5.13;;;;;;;4.62;62.45;101739.06;5017490;28;20025;-93
2022/04/18 05:07:59;;;;;;;6.20;4.90;;;;;;;4.58;62.70;101741.75;5008843;28;20025;-94
2022/04/18 05:10:24;;;;;;;7.50;5.00;;;;;;;4.59;62.21;101732.94;5007351;28;20027;-94
2022/04/18 05:12:50;;;;;;;7.72;4.97;;;;;;;4.59;62.18;101740.84;5009509;28;20048;-94
2022/04/18 05:15:15;;;;;;;5.88;5.07;;;;;;;4.55;62.58;101736.50;5018922;28;20467;-94
2022/04/18 05:17:41;;;;;;;5.60;4.97;;;;;;;4.56;61.90;101738.28;5012792;28;20088;-94
2022/04/18 05:20:06;;;;;;;5.72;5.07;;;;;;;4.60;62.00;101739.94;5017430;28;20080;-94
2022/04/18 05:22:32;;;;;;;7.85;5.55;;;;;;;4.64;61.34;101737.28;5004636;28;20038;-94
2022/04/18 05:24:58;;;;;;;6.32;5.00;;;;;;;4.67;60.84;101739.88;5008088;28;20026;-94
2022/04/18 05:27:23;;;;;;;6.18;5.18;;;;;;;4.78;60.07;101742.38;5003242;28;20117;-94
2022/04/18 05:29:49;;;;;;;7.15;5.35;;;;;;;4.82;58.82;101735.31;5019237;28;20097;-93
2022/04/18 05:32:14;;;;;;;6.38;5.15;;;;;;;4.94;58.66;101741.28;5006235;28;20041;-94
2022/04/18 05:34:40;;;;;;;10.18;5.18;;;;;;;5.02;58.05;101742.94;5007076;28;20026;-94
2022/04/18 05:37:05;;;;;;;6.95;4.82;;;;;;;5.04;57.72;101742.03;5018430;28;20402;-93
2022/04/18 05:39:30;;;;;;;6.45;5.00;;;;;;;5.13;57.30;101733.97;5018459;28;20045;-95
2022/04/18 05:41:56;;;;;;;6.93;5.00;;;;;;;5.30;57.39;101741.66;4988973;28;20042;-95
2022/04/18 05:44:22;;;;;;;7.38;5.53;;;;;;;5.48;56.92;101736.13;5018681;28;20796;-94
2022/04/18 05:46:48;;;;;;;8.98;5.10;;;;;;;5.66;55.98;101727.03;5015566;28;20469;-95
2022/04/18 05:49:14;;;;;;;6.18;5.20;;;;;;;6.00;55.57;101739.69;5012688;28;20093;-95
2022/04/18 05:51:39;;;;;;;6.68;4.97;;;;;;;6.27;54.73;101740.97;5001288;28;20026;-95
2022/04/18 05:54:04;;;;;;;6.32;4.90;;;;;;;6.57;54.26;101736.84;5016455;28;20046;-95
2022/04/18 05:56:30;;;;;;;6.90;5.43;;;;;;;6.79;53.12;101739.06;5015755;28;20494;-95
2022/04/18 05:58:56;;;;;;;8.55;4.78;;;;;;;7.03;52.67;101737.69;4993284;28;20467;-94
2022/04/18 06:01:22;;;;;;;8.40;5.00;;;;;;;7.30;52.02;101737.03;4990169;28;20029;-95
2022/04/18 06:03:47;;;;;;;5.22;4.72;;;;;;;7.49;51.52;101734.84;5012712;28;20084;-95
2022/04/18 06:06:13;;;;;;;5.50;4.50;;;;;;;7.76;50.65;101735.06;5008266;28;20036;-95
2022/04/18 06:08:38;;;;;;;7.38;4.97;;;;;;;7.96;50.07;101733.66;5012431;28;20036;-95
2022/04/18 06:11:04;;;;;;;8.93;5.35;;;;;;;8.12;49.14;101735.91;4990303;28;20360;-94
2022/04/18 06:13:29;;;;;;;6.07;4.90;;;;;;;8.31;49.29;101739.78;5015519;28;20037;-94
2022/04/18 06:15:54;;;;;;;7.60;4.70;;;;;;;8.54;49.37;101743.66;5007659;28;20026;-94
2022/04/18 06:18:19;;;;;;;5.85;4.07;;;;;;;8.81;48.86;101747.28;5004703;28;20025;-94
2022/04/18 06:20:45;;;;;;;5.55;4.68;;;;;;;8.87;47.17;101726.75;5010128;28;20056;-94
2022/04/18 06:23:10;;;;;;;5.38;4.45;;;;;;;9.25;47.05;101747.75;5004848;28;20042;-94
2022/04/18 06:25:39;;;;;;;7.78;4.53;;;;;;;9.50;46.74;101751.38;5010605;28;20167;-94
2022/04/18 06:28:04;;;;;;;5.85;4.53;;;;;;;9.77;46.24;101749.59;5004885;28;20041;-95
2022/04/18 06:30:29;;;;;;;5.63;4.30;;;;;;;9.90;44.89;101750.06;5007219;28;20403;-94
2022/04/18 06:32:54;;;;;;;6.22;4.60;;;;;;;10.07;44.91;101746.81;5002680;28;20033;-94
2022/04/18 06:35:20;;;;;;;6.40;4.18;;;;;;;10.24;44.05;101749.75;5009174;28;20026;-94
2022/04/18 06:37:45;;;;;;;6.15;4.30;;;;;;;10.35;43.83;101752.97;5013611;28;20467;-94
2022/04/18 06:40:10;;;;;;;4.45;4.03;;;;;;;10.54;43.41;101749.66;5013702;28;20042;-95
2022/04/18 06:42:37;;;;;;;7.07;3.97;;;;;;;10.61;42.56;101737.84;4987900;28;20048;-95
2022/04/18 06:45:03;;;;;;;6.22;4.03;;;;;;;10.72;42.66;101730.34;5010816;28;20507;-94
2022/04/18 06:47:28;;;;;;;5.60;4.10;;;;;;;11.02;42.46;101748.75;5007476;28;20030;-95
2022/04/18 06:49:54;;;;;;;4.85;3.80;;;;;;;11.21;42.38;101736.47;5011095;28;20092;-95
2022/04/18 06:52:22;;;;;;;5.47;3.70;;;;;;;11.39;41.60;101738.38;5006066;28;20061;-94
2022/04/18 06:54:47;;;;;;;4.97;3.88;;;;;;;11.52;40.60;101737.88;5003970;28;20106;-96
2022/04/18 06:57:12;;;;;;;4.70;3.90;;;;;;;11.68;40.23;101728.34;5005454;28;20269;-96
2022/04/18 06:59:37;;;;;;;4.85;4.15;;;;;;;11.88;40.20;101730.22;5007246;28;20045;-94
2022/04/18 07:02:03;;;;;;;5.90;4.20;;;;;;;12.17;40.14;101736.97;5006371;28;20034;-89
2022/04/18 07:04:28;;;;;;;5.70;4.10;;;;;;;12.51;39.47;101731.00;5008586;28;20096;-92
2022/04/18 07:06:54;;;;;;;4.88;4.07;;;;;;;12.78;39.28;101726.22;5007869;28;20026;-96
2022/04/18 07:09:19;;;;;;;6.90;4.20;;;;;;;13.26;38.98;101732.91;5009483;28;20468;-95
2022/04/18 07:11:45;;;;;;;5.22;4.05;;;;;;;13.64;38.33;101727.50;5010087;28;20430;-96
2022/04/18 07:14:12;;;;;;;5.40;4.40;;;;;;;13.94;37.08;101728.63;5011035;28;20044;-95
2022/04/18 07:16:37;;;;;;;5.43;3.70;;;;;;;14.33;37.04;101732.84;5011118;28;20149;-95
2022/04/18 07:19:02;;;;;;;6.18;4.30;;;;;;;14.51;34.97;101723.03;5003850;28;20060;-95
2022/04/18 07:21:28;;;;;;;5.80;4.43;;;;;;;14.67;34.79;101729.31;5007641;28;20025;-95
2022/04/18 07:23:53;;;;;;;4.65;4.03;;;;;;;15.00;35.25;101724.84;5008661;28;20065;-94
2022/04/18 07:26:19;;;;;;;4.68;3.65;;;;;;;15.25;34.70;101724.34;5019403;28;20116;-94
2022/04/18 07:28:45;;;;;;;6.13;4.25;;;;;;;15.59;33.73;101721.47;4990268;28;20022;-94
2022/04/18 07:31:11;;;;;;;5.65;4.05;;;;;;;16.03;33.46;101725.22;5007702;28;20060;-94
2022/04/18 07:33:36;;;;;;;5.18;3.70;;;;;;;16.32;32.30;101729.69;5009212;28;20025;-94
2022/04/18 07:36:03;;;;;;;5.18;3.90;;;;;;;16.41;31.29;101730.94;5005179;28;20038;-92
2022/04/18 07:41:14;;;;;;;6.95;3.85;;;;;;;16.56;31.13;101732.69;5006539;28;20628;-94
2022/04/18 07:43:39;;;;;;;5.50;4.15;;;;;;;17.12;30.87;101725.59;5005278;28;20470;-95
2022/04/18 07:46:04;;;;;;;4.43;4.00;;;;;;;17.45;29.42;101721.66;5007748;28;20087;-94
2022/04/18 07:48:30;;;;;;;4.55;3.60;;;;;;;17.90;29.10;101716.91;5010146;28;20037;-94
2022/04/18 07:53:40;;;;;;;;;;;;;;;18.62;30.37;101717.28;5005753;28;20045;-94
2022/04/18 07:56:05;;;;;;;4.63;3.70;;;;;;;19.04;28.33;101713.38;5006532;28;20357;-94
2022/04/18 07:58:30;;;;;;;3.88;3.22;;;;;;;19.62;26.93;101705.53;5008747;28;20036;-93
2022/04/18 08:00:56;;;;;;;5.80;3.35;;;;;;;19.88;25.41;101706.25;5003207;28;20479;-93
2022/04/18 08:03:21;;;;;;;5.28;3.78;;;;;;;20.05;25.57;101696.84;5006130;28;20083;-93
2022/04/18 08:05:46;;;;;;;4.43;3.35;;;;;;;20.40;24.60;101700.38;4994900;28;20530;-93
2022/04/18 08:08:11;;;;;;;6.07;4.32;;;;;;;20.61;24.22;101705.97;5008969;28;20084;-94
2022/04/18 08:10:37;;;;;;;5.60;3.83;;;;;;;20.91;24.04;101707.19;5006531;28;20497;-94
2022/04/18 08:13:03;;;;;;;5.07;3.70;;;;;;;21.58;23.35;101704.38;5011199;28;20030;-94
2022/04/18 08:15:29;;;;;;;3.70;3.40;;;;;;;22.05;22.76;101704.91;5008254;28;20026;-94
2022/04/18 08:17:54;;;;;;;4.82;3.28;;;;;;;22.70;22.37;101700.19;5005898;28;20426;-94
2022/04/18 08:20:19;;;;;;;3.33;2.83;;;;;;;23.25;21.27;101702.53;5002088;28;20034;-94
2022/04/18 08:22:45;;;;;;;4.53;3.00;;;;;;;23.01;20.74;101706.47;5008052;28;20494;-94
2022/04/18 08:25:11;;;;;;;3.65;2.90;;;;;;;22.85;21.08;101714.22;5005122;28;20034;-93
2022/04/18 08:27:37;;;;;;;5.00;3.20;;;;;;;23.24;20.95;101706.22;4999118;28;20404;-93
2022/04/18 08:30:04;;;;;;;3.65;2.80;;;;;;;23.55;20.08;101707.00;5002268;28;20026;-94
2022/04/18 08:32:38;;;;;;;4.10;2.83;;;;;;;23.61;20.51;101703.72;5005452;28;20025;-94
2022/04/18 08:35:05;;;;;;;4.85;3.00;;;;;;;23.61;19.53;101706.44;4997965;28;20121;-94
2022/04/18 08:37:31;;;;;;;4.03;2.92;;;;;;;23.31;19.85;101710.13;5007261;28;20017;-95
2022/04/18 08:39:56;;;;;;;4.53;2.97;;;;;;;23.42;20.54;101698.28;5013995;28;20018;-95
2022/04/18 08:42:23;;;;;;;3.72;3.10;;;;;;;23.92;19.90;101703.63;5003470;28;20376;-96
2022/04/18 08:44:50;;;;;;;3.30;3.00;;;;;;;24.51;20.04;101705.25;5005888;28;20034;-95
2022/04/18 08:52:43;;;;;;;3.22;2.92;;;;;;;24.93;19.32;101699.38;4999843;28;20049;-96
2022/04/18 08:52:47;;;;;;;4.18;3.03;;;;;;;25.59;19.10;101696.41;4993111;28;20061;-95
2022/04/18 08:55:12;;;;;;;3.67;3.00;;;;;;;25.91;17.72;101698.56;5009670;28;20097;-95
2022/04/18 08:57:37;;;;;;;4.25;3.00;;;;;;;26.27;17.89;101695.78;5009290;28;20526;-94
2022/04/18 09:00:04;;;;;;;5.07;2.85;;;;;;;26.50;17.14;101686.09;5005951;28;20401;-93
2022/04/18 09:02:29;;;;;;;3.53;2.60;;;;;;;26.74;17.64;101693.53;5006624;28;20676;-95
2022/04/18 09:04:55;;;;;;;4.95;3.17;;;;;;;27.33;17.59;101696.34;5011742;28;20113;-94
2022/04/18 09:07:22;;;;;;;3.83;3.08;;;;;;;27.56;16.03;101688.38;4997804;28;20029;-94
2022/04/18 09:09:54;;;;;;;3.65;3.10;;;;;;;27.49;16.25;101695.53;5009786;28;20583;-95
2022/04/18 09:12:21;;;;;;;4.68;2.70;;;;;;;28.09;16.09;101694.38;5006101;28;20037;-95
2022/04/18 09:14:48;;;;;;;3.20;2.90;;;;;;;28.40;16.12;101695.41;5004281;28;20033;-95
2022/04/18 09:17:36;;;;;;;6.65;2.78;;;;;;;28.35;16.09;101691.47;5015862;28;20094;-95
2022/04/18 09:20:03;;;;;;;4.93;2.90;;;;;;;28.40;16.27;101698.16;5012636;28;20113;-92
2022/04/18 09:22:28;;;;;;;4.35;3.05;;;;;;;28.61;15.43;101694.00;5014607;28;20033;-89
2022/04/18 09:24:54;;;;;;;3.13;2.83;;;;;;;28.91;14.67;101697.81;5010204;28;20025;-96
2022/04/18 09:27:29;;;;;;;3.33;2.83;;;;;;;29.66;15.65;101694.53;5015063;28;20033;-89
2022/04/18 09:30:08;;;;;;;2.95;2.65;;;;;;;30.28;15.32;101688.88;5012079;28;20052;-95
2022/04/18 09:32:34;;;;;;;3.60;3.15;;;;;;;30.46;13.76;101685.75;5008235;28;20030;-94
2022/04/18 09:35:01;;;;;;;3.55;2.85;;;;;;;30.69;13.96;101680.19;5020977;28;20100;-94
2022/04/18 09:37:29;;;;;;;4.28;3.17;;;;;;;30.45;14.27;101678.56;5018650;28;20056;-96
2022/04/18 09:39:55;;;;;;;3.40;2.55;;;;;;;30.76;13.19;101687.50;5006194;28;20061;-89
2022/04/18 09:42:29;;;;;;;4.10;3.58;;;;;;;30.70;13.20;101682.75;5017732;28;20022;-90
2022/04/18 09:44:55;;;;;;;3.33;2.65;;;;;;;30.59;13.00;101674.13;5007805;28;20070;-95
2022/04/18 09:47:23;;;;;;;3.03;2.70;;;;;;;30.62;13.10;101666.34;5008442;28;20026;-96
2022/04/18 09:49:49;;;;;;;3.40;2.85;;;;;;;30.85;13.36;101670.91;4996625;28;20029;-94
2022/04/18 09:52:20;;;;;;;3.00;2.63;;;;;;;31.17;13.74;101672.38;5016067;28;20056;-96
2022/04/18 09:57:24;;;;;;;3.58;2.70;;;;;;;31.66;12.63;101663.41;5035658;28;20040;-95
2022/04/18 09:59:51;;;;;;;4.18;3.40;;;;;;;31.67;12.18;101660.44;5045812;28;20026;-96
2022/04/18 10:02:17;;;;;;;3.47;2.75;;;;;;;32.13;12.34;101660.00;5028817;28;20103;-95
2022/04/18 10:04:44;;;;;;;2.90;2.65;;;;;;;32.31;11.97;101665.00;5028102;28;20036;-93
2022/04/18 10:07:10;;;;;;;3.85;3.03;;;;;;;32.77;12.32;101669.13;5043781;28;20046;-96
2022/04/18 10:09:39;;;;;;;6.22;2.33;;;;;;;32.85;11.38;101661.53;5044681;28;20017;-96
2022/04/18 10:12:04;;;;;;;3.70;2.80;;;;;;;32.67;10.71;101659.31;5040430;28;20029;-96
2022/04/18 10:14:31;;;;;;;4.35;3.13;;;;;;;32.21;11.94;101662.63;5049818;28;20029;-96
2022/04/18 10:16:57;;;;;;;3.78;2.97;;;;;;;32.47;11.56;101663.88;5049203;28;20057;-96
2022/04/18 10:19:23;;;;;;;3.38;3.03;;;;;;;32.91;11.59;101663.47;5206159;22;20053;-96
2022/04/18 10:21:59;;;;;;;4.40;3.28;;;;;;;33.11;10.65;101660.81;5033647;28;20044;-90
2022/04/18 10:24:52;;;;;;;3.67;3.00;;;;;;;33.43;12.29;101650.06;5028970;28;20764;-95
2022/04/18 10:27:32;;;;;;;4.82;3.47;;;;;;;33.13;11.74;101647.66;5021203;28;20467;-89
2022/04/18 10:30:00;;;;;;;3.83;3.20;;;;;;;32.61;11.24;101646.38;5039620;28;20033;-93
2022/04/18 10:32:27;;;;;;;3.92;3.50;;;;;;;32.16;11.15;101651.34;5025937;28;20034;-95
2022/04/18 10:34:56;;;;;;;3.33;2.67;;;;;;;31.79;10.95;101627.75;5032551;28;20037;-96
2022/04/18 10:37:24;;;;;;;5.25;2.65;;;;;;;31.80;11.13;101629.44;5021426;28;20100;-92
2022/04/18 10:40:17;;;;;;;3.47;2.83;;;;;;;31.56;11.48;101633.47;5028532;28;20283;-89
2022/04/18 10:42:43;;;;;;;2.72;2.53;;;;;;;31.92;11.66;101635.28;5031038;28;20037;-95
2022/04/18 10:45:14;;;;;;;3.33;3.00;;;;;;;32.04;10.83;101633.69;5033745;28;20061;-92
2022/04/18 10:48:03;;;;;;;4.22;3.05;;;;;;;32.34;11.48;101641.72;5017042;28;20025;-92
2022/04/18 10:50:43;;;;;;;5.18;3.00;;;;;;;31.94;11.70;101636.78;5028791;28;20029;-93
2022/04/18 10:53:20;;;;;;;4.07;2.92;;;;;;;32.13;11.46;101637.97;5026654;28;20033;-93
2022/04/18 10:55:51;;;;;;;4.32;3.30;;;;;;;31.87;11.07;101629.53;5027050;28;20104;-93
2022/04/18 10:58:20;;;;;;;3.00;2.47;;;;;;;31.39;10.43;101632.00;5027920;28;20048;-91
2022/04/18 11:00:46;;;;;;;3.20;2.50;;;;;;;31.27;10.86;101634.41;5021713;28;20036;-93
2022/04/18 11:03:12;;;;;;;2.95;2.40;;;;;;;31.50;10.85;101610.34;5024281;28;20048;-95
2022/04/18 11:05:38;;;;;;;3.33;3.03;;;;;;;31.74;10.68;101617.31;5027493;28;20479;-93
2022/04/18 11:08:22;;;;;;;3.30;3.00;;;;;;;31.87;12.17;101611.09;5030461;28;20026;-92
2022/04/18 11:10:47;;;;;;;6.00;3.25;;;;;;;31.93;11.47;101615.81;5039104;28;20033;-96
2022/04/18 11:13:13;;;;;;;3.35;2.70;;;;;;;32.29;11.86;101616.69;5035048;28;20394;-93
2022/04/18 11:15:38;;;;;;;3.92;3.33;;;;;;;31.77;11.35;101609.69;5022154;28;20463;-94
2022/04/18 11:18:09;;;;;;;5.45;4.15;;;;;;;31.15;11.67;101603.81;5026428;28;20053;-86
2022/04/18 11:20:36;;;;;;;4.93;4.07;;;;;;;31.23;11.89;101605.59;5031265;28;20052;-93
2022/04/18 11:23:21;;;;;;;3.92;3.22;;;;;;;31.58;12.88;101603.00;5038167;28;20029;-96
2022/04/18 11:26:00;;;;;;;4.45;3.78;;;;;;;31.81;12.23;101602.75;5031223;28;20061;-96
2022/04/18 11:28:33;;;;;;;4.30;3.22;;;;;;;32.10;11.42;101597.06;5021005;28;20722;-93
2022/04/18 11:30:58;;;;;;;3.53;3.22;;;;;;;32.46;11.03;101605.16;5024326;28;20549;-91
2022/04/18 11:33:24;;;;;;;4.35;3.95;;;;;;;32.92;11.43;101595.41;5028655;28;20046;-91
2022/04/18 11:35:50;;;;;;;4.70;3.28;;;;;;;32.90;11.36;101595.59;5028778;28;20091;-91
2022/04/18 11:38:15;;;;;;;3.80;3.22;;;;;;;32.97;11.82;101590.97;5026009;28;20022;-90
2022/04/18 11:40:41;;;;;;;4.20;3.67;;;;;;;33.29;12.09;101584.91;5025286;28;20033;-92
2022/04/18 11:43:13;;;;;;;4.00;3.30;;;;;;;33.38;11.83;101590.00;5015030;28;20033;-92
2022/04/18 11:45:39;;;;;;;4.20;3.80;;;;;;;33.49;11.13;101587.72;5011816;28;20029;-92
2022/04/18 11:48:04;;;;;;;4.60;3.35;;;;;;;33.53;10.63;101586.22;5013555;28;20036;-91